Time;durP1;ratioP1;P1;durP2;ratioP2;P2;SDS_P1;SDS_P2;PMS_P1;PMS_P2;Temp;Humidity;BMP_temperature;BMP_pressure;BME280_temperature;BME280_humidity;BME280_pressure;Samples;Min_cycle;Max_cycle;Signal;HPM_P1;HPM_P2
2023/11/01 00:00:32;;;;;;;;;;;13.50;99.90;;;;;;4906934;29;20350;-76
2023/11/01 00:02:58;;;;;;;;;;;13.40;99.90;;;;;;4939260;29;19906;-76
2023/11/01 00:05:23;;;;;;;;;;;13.50;99.90;;;;;;4940451;29;19911;-76
2023/11/01 00:07:49;;;;;;;;;;;13.50;99.90;;;;;;4938729;29;19922;-76
2023/11/01 00:10:15;;;;;;;;;;;13.40;99.90;;;;;;4920006;29;20005;-76
2023/11/01 00:12:40;;;;;;;;;;;13.40;99.90;;;;;;4918501;29;19905;-76
2023/11/01 00:15:06;;;;;;;;;;;13.40;99.90;;;;;;4901585;29;19914;-76
2023/11/01 00:17:31;;;;;;;;;;;13.40;99.90;;;;;;4909504;29;19914;-76
2023/11/01 00:19:57;;;;;;;;;;;13.40;99.90;;;;;;4931391;29;19947;-76
2023/11/01 00:22:22;;;;;;;;;;;13.40;99.90;;;;;;4919166;29;19911;-76
2023/11/01 00:24:48;;;;;;;;;;;13.40;99.90;;;;;;4918121;29;20390;-76
2023/11/01 00:27:13;;;;;;;;;;;13.40;99.90;;;;;;4919375;29;19915;-76
2023/11/01 00:29:39;;;;;;;;;;;13.40;99.90;;;;;;4917689;29;20001;-76
2023/11/01 00:32:04;;;;;;;;;;;13.40;99.90;;;;;;4915116;29;19954;-76
2023/11/01 00:34:30;;;;;;;;;;;13.40;99.90;;;;;;4926062;29;19903;-75
2023/11/01 00:36:55;;;;;;;;;;;13.50;99.90;;;;;;4916476;29;19911;-76
2023/11/01 00:39:21;;;;;;;;;;;13.50;99.90;;;;;;4890887;29;20009;-76
2023/11/01 00:41:46;;;;;;;;;;;13.40;99.90;;;;;;4899201;29;20389;-75
2023/11/01 00:44:12;;;;;;;;;;;13.50;99.90;;;;;;4908597;29;19938;-76
2023/11/01 00:46:37;;;;;;;;;;;13.50;99.90;;;;;;4901822;29;19914;-76
2023/11/01 00:49:03;;;;;;;;;;;13.50;99.90;;;;;;4922502;29;19923;-75
2023/11/01 00:51:28;;;;;;;;;;;13.40;99.90;;;;;;4919922;29;19946;-76
2023/11/01 00:53:54;;;;;;;;;;;13.40;99.90;;;;;;4918455;29;20013;-76
2023/11/01 00:56:19;;;;;;;;;;;13.40;99.90;;;;;;4921580;29;19907;-76
2023/11/01 00:58:45;;;;;;;;;;;13.40;99.90;;;;;;4926126;29;19926;-76
2023/11/01 01:01:10;;;;;;;;;;;13.40;99.90;;;;;;4918360;29;20458;-76
2023/11/01 01:03:36;;;;;;;;;;;13.30;99.90;;;;;;4935849;29;19938;-78
2023/11/01 01:06:02;;;;;;;;;;;13.30;99.90;;;;;;4884215;29;19915;-76
2023/11/01 01:08:27;;;;;;;;;;;13.30;99.90;;;;;;4899466;29;19931;-76
2023/11/01 01:10:53;;;;;;;;;;;13.20;99.90;;;;;;4904356;29;19930;-76
2023/11/01 01:13:19;;;;;;;;;;;13.20;99.90;;;;;;4911380;29;19915;-75
2023/11/01 01:15:45;;;;;;;;;;;13.20;99.90;;;;;;4917262;29;19911;-76
2023/11/01 01:18:14;;;;;;;;;;;13.20;99.90;;;;;;4922023;29;20267;-76
2023/11/01 01:20:40;;;;;;;;;;;13.20;99.90;;;;;;4921685;29;19925;-76
2023/11/01 01:23:05;;;;;;;;;;;13.20;99.90;;;;;;4917814;29;19907;-75
2023/11/01 01:25:31;;;;;;;;;;;13.20;99.90;;;;;;4917854;29;19945;-76
2023/11/01 01:27:56;;;;;;;;;;;13.20;99.90;;;;;;4919281;29;19907;-76
2023/11/01 01:30:22;;;;;;;;;;;13.20;99.90;;;;;;4917942;29;19915;-76
2023/11/01 01:32:47;;;;;;;;;;;13.20;99.90;;;;;;4917502;29;19950;-75
2023/11/01 01:35:16;;;;;;;;;;;13.20;99.90;;;;;;4917775;29;19998;-76
2023/11/01 01:37:41;;;;;;;;;;;13.20;99.90;;;;;;4904572;29;19917;-76
2023/11/01 01:40:07;;;;;;;;;;;13.20;99.90;;;;;;4900366;29;19911;-76
2023/11/01 01:42:33;;;;;;;;;;;13.30;99.90;;;;;;4926295;29;19912;-76
2023/11/01 01:44:58;;;;;;;;;;;13.30;99.90;;;;;;4907349;29;20001;-76
2023/11/01 01:47:24;;;;;;;;;;;13.40;99.90;;;;;;4898961;29;20011;-75
2023/11/01 01:49:50;;;;;;;;;;;13.30;99.90;;;;;;4893771;29;19923;-75
2023/11/01 01:52:17;;;;;;;;;;;13.30;99.90;;;;;;4900341;29;19911;-75
2023/11/01 01:54:42;;;;;;;;;;;13.30;99.90;;;;;;4910258;29;19916;-76
2023/11/01 01:57:09;;;;;;;;;;;13.30;99.90;;;;;;4902075;29;19963;-75
2023/11/01 01:59:35;;;;;;;;;;;13.30;99.90;;;;;;4881727;29;19934;-75
2023/11/01 02:02:01;;;;;;;;;;;13.20;99.90;;;;;;4930204;29;19915;-75
2023/11/01 02:04:27;;;;;;;;;;;13.20;99.90;;;;;;4928419;29;19938;-75
2023/11/01 02:06:52;;;;;;;;;;;13.20;99.90;;;;;;4902578;29;19910;-75
2023/11/01 02:09:18;;;;;;;;;;;13.10;99.90;;;;;;4931044;29;19899;-76
2023/11/01 02:11:44;;;;;;;;;;;13.10;99.90;;;;;;4904714;29;19915;-75
2023/11/01 02:14:10;;;;;;;;;;;13.10;99.90;;;;;;4897946;29;19907;-75
2023/11/01 02:16:36;;;;;;;;;;;13.10;99.90;;;;;;4901798;29;19896;-76
2023/11/01 02:19:01;;;;;;;;;;;13.10;99.90;;;;;;4895264;29;19919;-76
2023/11/01 02:21:27;;;;;;;;;;;13.10;99.90;;;;;;4896639;29;19907;-76
2023/11/01 02:23:54;;;;;;;;;;;13.10;99.90;;;;;;4904739;29;19899;-75
2023/11/01 02:26:19;;;;;;;;;;;13.10;99.90;;;;;;4880696;29;19990;-75
2023/11/01 02:28:45;;;;;;;;;;;13.10;99.90;;;;;;4880689;29;19947;-75
2023/11/01 02:31:11;;;;;;;;;;;13.10;99.90;;;;;;4905896;29;19912;-75
2023/11/01 02:33:37;;;;;;;;;;;13.10;99.90;;;;;;4899482;29;19912;-76
2023/11/01 02:36:02;;;;;;;;;;;13.00;99.90;;;;;;4898173;29;20298;-75
2023/11/01 02:38:28;;;;;;;;;;;13.10;99.90;;;;;;4907920;29;19900;-76
2023/11/01 02:40:53;;;;;;;;;;;13.10;99.90;;;;;;4900443;29;19964;-75
2023/11/01 02:43:19;;;;;;;;;;;13.10;99.90;;;;;;4898407;29;19907;-75
2023/11/01 02:45:47;;;;;;;;;;;13.10;99.90;;;;;;4898497;29;19923;-75
2023/11/01 02:48:13;;;;;;;;;;;13.10;99.90;;;;;;4885420;29;20017;-75
2023/11/01 02:50:38;;;;;;;;;;;13.10;99.90;;;;;;4886596;29;19950;-74
2023/11/01 02:53:04;;;;;;;;;;;13.20;99.90;;;;;;4881249;29;19915;-75
2023/11/01 02:55:29;;;;;;;;;;;13.20;99.90;;;;;;4864495;29;20376;-76
2023/11/01 02:57:55;;;;;;;;;;;13.20;99.90;;;;;;4883124;29;19908;-75
2023/11/01 03:00:20;;;;;;;;;;;13.20;99.90;;;;;;4887516;29;19919;-75
2023/11/01 03:02:47;;;;;;;;;;;13.20;99.90;;;;;;4901908;29;19915;-75
2023/11/01 03:05:13;;;;;;;;;;;13.20;99.90;;;;;;4901302;29;19914;-75
2023/11/01 03:07:39;;;;;;;;;;;13.20;99.90;;;;;;4886448;29;19915;-75
2023/11/01 03:10:05;;;;;;;;;;;13.20;99.90;;;;;;4883846;29;19922;-75
2023/11/01 03:12:30;;;;;;;;;;;13.30;99.90;;;;;;4908006;29;19911;-75
2023/11/01 03:14:56;;;;;;;;;;;13.30;99.90;;;;;;4904205;29;19916;-75
2023/11/01 03:17:24;;;;;;;;;;;13.30;99.90;;;;;;4904144;29;19915;-75
2023/11/01 03:19:50;;;;;;;;;;;13.30;99.90;;;;;;4920886;29;19912;-75
2023/11/01 03:22:15;;;;;;;;;;;13.30;99.90;;;;;;4902703;29;19926;-75
2023/11/01 03:24:41;;;;;;;;;;;13.30;99.90;;;;;;4901094;29;20395;-76
2023/11/01 03:27:06;;;;;;;;;;;13.30;99.90;;;;;;4885678;29;20343;-75
2023/11/01 03:29:32;;;;;;;;;;;13.30;99.90;;;;;;4902177;29;19935;-75
2023/11/01 03:31:57;;;;;;;;;;;13.30;99.90;;;;;;4903014;29;19911;-75
2023/11/01 03:34:23;;;;;;;;;;;13.40;99.90;;;;;;4933034;29;19899;-75
2023/11/01 03:36:49;;;;;;;;;;;13.40;99.90;;;;;;4921321;29;19919;-75
2023/11/01 03:39:14;;;;;;;;;;;13.40;99.90;;;;;;4919285;29;19939;-75
2023/11/01 03:41:40;;;;;;;;;;;13.40;99.90;;;;;;4925794;29;20299;-76
2023/11/01 03:44:06;;;;;;;;;;;13.50;99.90;;;;;;4920180;29;19967;-75
2023/11/01 03:46:32;;;;;;;;;;;13.40;99.90;;;;;;4902470;29;20394;-76
2023/11/01 03:48:57;;;;;;;;;;;13.40;99.90;;;;;;4921479;29;19931;-75
2023/11/01 03:51:22;;;;;;;;;;;13.50;99.90;;;;;;4888484;29;19907;-75
2023/11/01 03:53:48;;;;;;;;;;;13.50;99.90;;;;;;4902569;29;19915;-75
2023/11/01 03:56:14;;;;;;;;;;;13.60;99.90;;;;;;4917560;29;19911;-75
2023/11/01 03:58:40;;;;;;;;;;;13.60;99.90;;;;;;4919544;29;19990;-75
2023/11/01 04:01:05;;;;;;;;;;;13.60;99.90;;;;;;4912151;29;20367;-75
2023/11/01 04:03:31;;;;;;;;;;;13.60;99.90;;;;;;4952853;29;19946;-75
2023/11/01 04:05:56;;;;;;;;;;;13.60;99.90;;;;;;4917841;29;19953;-76
2023/11/01 04:08:22;;;;;;;;;;;13.60;99.90;;;;;;4883170;29;19954;-75
2023/11/01 04:10:48;;;;;;;;;;;13.60;99.90;;;;;;4922003;29;19907;-76
2023/11/01 04:13:13;;;;;;;;;;;13.70;99.90;;;;;;4907410;29;19961;-75
2023/11/01 04:15:39;;;;;;;;;;;13.70;99.90;;;;;;4919252;29;19915;-75
2023/11/01 04:18:04;;;;;;;;;;;13.80;99.90;;;;;;4926629;29;19899;-76
2023/11/01 04:20:30;;;;;;;;;;;13.70;99.90;;;;;;4923287;29;19950;-76
2023/11/01 04:22:55;;;;;;;;;;;13.70;99.90;;;;;;4900572;29;19954;-76
2023/11/01 04:25:21;;;;;;;;;;;13.60;99.90;;;;;;4887851;29;20406;-76
2023/11/01 04:27:46;;;;;;;;;;;13.60;99.90;;;;;;4903397;29;20320;-76
2023/11/01 04:30:12;;;;;;;;;;;13.60;99.90;;;;;;4915969;29;19926;-75
2023/11/01 04:32:39;;;;;;;;;;;13.60;99.90;;;;;;4923467;29;19910;-76
2023/11/01 04:35:09;;;;;;;;;;;13.60;99.90;;;;;;4911099;29;20432;-76
2023/11/01 04:37:41;;;;;;;;;;;13.60;99.90;;;;;;4915211;29;20385;-75
2023/11/01 04:40:07;;;;;;;;;;;13.70;99.90;;;;;;4900018;29;20022;-76
2023/11/01 04:42:33;;;;;;;;;;;13.70;99.90;;;;;;4897614;29;20365;-76
2023/11/01 04:44:58;;;;;;;;;;;13.60;99.90;;;;;;4883385;29;19907;-75
2023/11/01 04:47:24;;;;;;;;;;;13.60;99.90;;;;;;4901619;29;19914;-76
2023/11/01 04:49:49;;;;;;;;;;;13.50;99.90;;;;;;4925581;29;19903;-76
2023/11/01 04:52:15;;;;;;;;;;;13.50;99.90;;;;;;4889908;29;20394;-76
2023/11/01 04:54:40;;;;;;;;;;;13.50;99.90;;;;;;4883077;29;19959;-76
2023/11/01 04:57:06;;;;;;;;;;;13.50;99.90;;;;;;4882609;29;19918;-76
2023/11/01 04:59:33;;;;;;;;;;;13.50;99.90;;;;;;4884322;29;19923;-76
2023/11/01 05:01:59;;;;;;;;;;;13.50;99.90;;;;;;4883391;29;19915;-75
2023/11/01 05:04:25;;;;;;;;;;;13.50;99.90;;;;;;4902242;29;19907;-75
2023/11/01 05:06:53;;;;;;;;;;;13.50;99.90;;;;;;4915291;29;19915;-76
2023/11/01 05:09:19;;;;;;;;;;;13.60;99.90;;;;;;4917968;29;19917;-76
2023/11/01 05:11:48;;;;;;;;;;;13.60;99.90;;;;;;4914514;29;19917;-76
2023/11/01 05:14:14;;;;;;;;;;;13.60;99.90;;;;;;4901009;29;20018;-75
2023/11/01 05:16:39;;;;;;;;;;;13.60;99.90;;;;;;4894279;29;19954;-75
2023/11/01 05:19:08;;;;;;;;;;;13.50;99.90;;;;;;4927872;29;19907;-76
2023/11/01 05:21:35;;;;;;;;;;;13.50;99.90;;;;;;4899601;29;19915;-76
2023/11/01 05:24:00;;;;;;;;;;;13.40;99.90;;;;;;4899375;29;19947;-76
2023/11/01 05:26:27;;;;;;;;;;;13.40;99.90;;;;;;4888482;29;20418;-76
2023/11/01 05:28:53;;;;;;;;;;;13.30;99.90;;;;;;4898971;29;20790;-76
2023/11/01 05:31:18;;;;;;;;;;;13.20;99.90;;;;;;4907507;29;20015;-76
2023/11/01 05:33:44;;;;;;;;;;;13.10;99.90;;;;;;4918847;29;20406;-76
2023/11/01 05:36:13;;;;;;;;;;;13.00;99.90;;;;;;4921589;29;20001;-76
2023/11/01 05:38:39;;;;;;;;;;;13.00;99.90;;;;;;4915076;29;19907;-76
2023/11/01 05:41:08;;;;;;;;;;;12.90;99.90;;;;;;4916718;29;19987;-77
2023/11/01 05:43:34;;;;;;;;;;;12.90;99.90;;;;;;4925735;29;19911;-77
2023/11/01 05:46:00;;;;;;;;;;;12.70;99.90;;;;;;4918324;29;20401;-76
2023/11/01 05:48:25;;;;;;;;;;;12.80;99.90;;;;;;4917995;29;19958;-77
2023/11/01 05:50:51;;;;;;;;;;;13.10;99.90;;;;;;4929994;29;19942;-77
2023/11/01 05:53:16;;;;;;;;;;;13.60;99.90;;;;;;4916459;29;19914;-77
2023/11/01 05:55:42;;;;;;;;;;;14.00;99.90;;;;;;4917444;29;20413;-76
2023/11/01 05:58:07;;;;;;;;;;;14.30;99.90;;;;;;4926763;29;19911;-77
2023/11/01 06:00:34;;;;;;;;;;;14.40;99.90;;;;;;4922175;29;20290;-77
2023/11/01 06:02:59;;;;;;;;;;;14.40;99.90;;;;;;4937358;29;20064;-77
2023/11/01 06:05:25;;;;;;;;;;;14.50;99.90;;;;;;4946474;29;19934;-76
2023/11/01 06:07:51;;;;;;;;;;;14.50;99.90;;;;;;4921545;29;19962;-76
2023/11/01 06:10:17;;;;;;;;;;;14.50;99.90;;;;;;4935084;29;19915;-77
2023/11/01 06:12:42;;;;;;;;;;;14.40;99.90;;;;;;4890713;29;19891;-75
2023/11/01 06:15:10;;;;;;;;;;;14.40;99.90;;;;;;4883741;29;19916;-77
2023/11/01 06:17:36;;;;;;;;;;;14.40;99.90;;;;;;4906024;29;19911;-75
2023/11/01 06:20:01;;;;;;;;;;;14.20;99.90;;;;;;4919802;29;19928;-77
2023/11/01 06:22:27;;;;;;;;;;;14.20;99.90;;;;;;4921808;29;19906;-76
2023/11/01 06:24:52;;;;;;;;;;;14.20;99.90;;;;;;4925142;29;20409;-76
2023/11/01 06:27:18;;;;;;;;;;;14.20;99.90;;;;;;4925322;29;19966;-76
2023/11/01 06:29:43;;;;;;;;;;;14.20;99.90;;;;;;4918477;29;19911;-76
2023/11/01 06:32:11;;;;;;;;;;;14.20;99.90;;;;;;4921149;29;20326;-77
2023/11/01 06:34:37;;;;;;;;;;;14.20;99.90;;;;;;4934799;29;19926;-76
2023/11/01 06:37:02;;;;;;;;;;;14.20;99.90;;;;;;4922649;29;20000;-77
2023/11/01 06:39:28;;;;;;;;;;;14.10;99.90;;;;;;4904159;29;20336;-78
2023/11/01 06:41:54;;;;;;;;;;;14.10;99.90;;;;;;4902439;29;19907;-77
2023/11/01 06:44:19;;;;;;;;;;;14.00;99.90;;;;;;4909373;29;19911;-77
2023/11/01 06:46:45;;;;;;;;;;;13.90;99.90;;;;;;4902084;29;19915;-78
2023/11/01 06:49:10;;;;;;;;;;;13.90;99.90;;;;;;4885213;29;20382;-77
2023/11/01 06:51:36;;;;;;;;;;;13.80;99.90;;;;;;4903528;29;19947;-77
2023/11/01 06:54:01;;;;;;;;;;;13.90;99.90;;;;;;4902399;29;19911;-77
2023/11/01 06:56:27;;;;;;;;;;;14.00;99.90;;;;;;4901311;29;19908;-76
2023/11/01 06:58:52;;;;;;;;;;;13.80;99.90;;;;;;4903484;29;19911;-77
2023/11/01 07:01:18;;;;;;;;;;;13.80;99.90;;;;;;4904247;29;19910;-76
2023/11/01 07:03:43;;;;;;;;;;;13.80;99.90;;;;;;4925631;29;19894;-77
2023/11/01 07:06:09;;;;;;;;;;;13.80;99.90;;;;;;4927474;29;19936;-77
2023/11/01 07:08:35;;;;;;;;;;;13.90;99.90;;;;;;4920549;29;19915;-78
2023/11/01 07:11:00;;;;;;;;;;;13.90;99.90;;;;;;4903214;29;19947;-77
2023/11/01 07:13:26;;;;;;;;;;;13.90;99.90;;;;;;4925924;29;19900;-77
2023/11/01 07:15:51;;;;;;;;;;;14.00;99.90;;;;;;4885122;29;19911;-78
2023/11/01 07:18:17;;;;;;;;;;;14.00;99.90;;;;;;4918312;29;20001;-77
2023/11/01 07:20:43;;;;;;;;;;;14.10;99.90;;;;;;4936733;29;19915;-77
2023/11/01 07:23:09;;;;;;;;;;;14.00;99.90;;;;;;4939281;29;19906;-76
2023/11/01 07:25:34;;;;;;;;;;;14.10;99.90;;;;;;4921899;29;20267;-77
2023/11/01 07:28:00;;;;;;;;;;;14.10;99.90;;;;;;4923914;29;19971;-78
2023/11/01 07:30:25;;;;;;;;;;;14.20;99.90;;;;;;4939455;29;19966;-78
2023/11/01 07:32:52;;;;;;;;;;;14.20;99.90;;;;;;4926972;29;20030;-77
2023/11/01 07:35:17;;;;;;;;;;;14.20;99.90;;;;;;4921853;29;19962;-77
2023/11/01 07:37:43;;;;;;;;;;;14.30;99.90;;;;;;4918155;29;20370;-77
2023/11/01 07:40:09;;;;;;;;;;;14.30;99.90;;;;;;4901321;29;19914;-78
2023/11/01 07:42:38;;;;;;;;;;;14.40;99.90;;;;;;4911453;29;19918;-77
2023/11/01 07:45:08;;;;;;;;;;;14.40;99.90;;;;;;4919962;29;19911;-77
2023/11/01 07:47:34;;;;;;;;;;;14.50;99.90;;;;;;4921724;29;20001;-76
2023/11/01 07:49:59;;;;;;;;;;;14.50;99.90;;;;;;4933073;29;19957;-78
2023/11/01 07:52:25;;;;;;;;;;;14.10;99.90;;;;;;4938941;29;20001;-76
2023/11/01 07:54:51;;;;;;;;;;;13.80;99.90;;;;;;4921788;29;19913;-78
2023/11/01 07:57:16;;;;;;;;;;;13.50;99.90;;;;;;4946289;29;20278;-77
2023/11/01 07:59:42;;;;;;;;;;;13.40;99.90;;;;;;4938620;29;19910;-77
2023/11/01 08:02:07;;;;;;;;;;;13.30;99.90;;;;;;4921224;29;19962;-77
2023/11/01 08:04:33;;;;;;;;;;;13.30;99.90;;;;;;4951282;29;19915;-76
2023/11/01 08:06:58;;;;;;;;;;;13.20;99.90;;;;;;4938553;29;19907;-77
2023/11/01 08:09:24;;;;;;;;;;;13.10;99.90;;;;;;4921247;29;19910;-77
2023/11/01 08:11:49;;;;;;;;;;;13.00;99.90;;;;;;4921178;29;19916;-77
2023/11/01 08:14:15;;;;;;;;;;;13.10;99.90;;;;;;4901104;29;19907;-76
2023/11/01 08:16:41;;;;;;;;;;;13.20;99.90;;;;;;4900839;29;19931;-77
2023/11/01 08:19:06;;;;;;;;;;;13.30;99.90;;;;;;4938222;29;19931;-78
2023/11/01 08:21:32;;;;;;;;;;;13.30;99.90;;;;;;4936008;29;19946;-77
2023/11/01 08:23:57;;;;;;;;;;;13.50;99.90;;;;;;4938511;29;19929;-78
2023/11/01 08:26:23;;;;;;;;;;;13.70;99.90;;;;;;4949604;29;19923;-78
2023/11/01 08:28:49;;;;;;;;;;;13.80;99.90;;;;;;4939819;29;19919;-77
2023/11/01 08:31:15;;;;;;;;;;;13.90;99.90;;;;;;4918468;29;19911;-78
2023/11/01 08:33:40;;;;;;;;;;;14.10;99.90;;;;;;4929842;29;19903;-77
2023/11/01 08:36:06;;;;;;;;;;;14.10;99.90;;;;;;4903596;29;20275;-78
2023/11/01 08:38:32;;;;;;;;;;;14.20;99.90;;;;;;4917311;29;20386;-77
2023/11/01 08:40:57;;;;;;;;;;;14.20;99.90;;;;;;4906446;29;20310;-76
2023/11/01 08:43:23;;;;;;;;;;;14.20;99.90;;;;;;4920230;29;19915;-77
2023/11/01 08:45:48;;;;;;;;;;;14.20;99.90;;;;;;4901699;29;20438;-78
2023/11/01 08:48:16;;;;;;;;;;;14.50;99.90;;;;;;4904734;29;19911;-78
2023/11/01 08:50:41;;;;;;;;;;;15.00;99.90;;;;;;4920586;29;20006;-77
2023/11/01 08:53:07;;;;;;;;;;;15.60;99.90;;;;;;4917442;29;20355;-76
2023/11/01 08:55:33;;;;;;;;;;;15.80;99.90;;;;;;4923607;29;20022;-77
2023/11/01 08:57:59;;;;;;;;;;;16.20;99.90;;;;;;4901557;29;19946;-78
2023/11/01 09:00:24;;;;;;;;;;;16.50;99.90;;;;;;4921297;29;19945;-78
2023/11/01 09:02:50;;;;;;;;;;;15.90;99.90;;;;;;4944939;29;19914;-78
2023/11/01 09:05:15;;;;;;;;;;;15.60;99.90;;;;;;4923161;29;19907;-78
2023/11/01 09:07:41;;;;;;;;;;;15.80;99.90;;;;;;4899392;29;19912;-78
2023/11/01 09:10:09;;;;;;;;;;;15.80;99.90;;;;;;4883776;29;19926;-78
2023/11/01 09:12:35;;;;;;;;;;;15.50;99.90;;;;;;4912118;29;20430;-77
2023/11/01 09:15:00;;;;;;;;;;;15.20;99.90;;;;;;4901262;29;19994;-76
2023/11/01 09:17:26;;;;;;;;;;;14.70;99.90;;;;;;4904091;29;20434;-76
2023/11/01 09:19:52;;;;;;;;;;;14.10;99.90;;;;;;4925240;29;20010;-76
2023/11/01 09:22:17;;;;;;;;;;;13.50;99.90;;;;;;4882092;29;19914;-76
2023/11/01 09:24:43;;;;;;;;;;;13.30;99.90;;;;;;4887882;29;19922;-77
2023/11/01 09:27:09;;;;;;;;;;;13.20;99.90;;;;;;4901523;29;19911;-77
2023/11/01 09:29:34;;;;;;;;;;;13.20;99.90;;;;;;4922291;29;19899;-78
2023/11/01 09:32:00;;;;;;;;;;;13.50;99.90;;;;;;4910411;29;19915;-77
2023/11/01 09:34:26;;;;;;;;;;;13.70;99.90;;;;;;4926287;29;19907;-76
2023/11/01 09:36:51;;;;;;;;;;;14.30;99.90;;;;;;4901836;29;19990;-78
2023/11/01 09:39:17;;;;;;;;;;;14.60;99.90;;;;;;4889511;29;19954;-77
2023/11/01 09:41:52;;;;;;;;;;;14.70;99.90;;;;;;4901125;29;19915;-78
2023/11/01 09:44:18;;;;;;;;;;;14.70;99.90;;;;;;4906345;29;19915;-77
2023/11/01 09:46:45;;;;;;;;;;;14.90;99.90;;;;;;4898392;29;20047;-76
2023/11/01 09:49:11;;;;;;;;;;;15.00;99.90;;;;;;4900913;29;19915;-76
2023/11/01 09:51:37;;;;;;;;;;;15.20;99.90;;;;;;4919134;29;19934;-79
2023/11/01 09:54:04;;;;;;;;;;;15.30;99.90;;;;;;4899933;29;19919;-77
2023/11/01 09:56:32;;;;;;;;;;;15.40;99.90;;;;;;4898492;29;19955;-77
2023/11/01 09:59:02;;;;;;;;;;;15.60;99.90;;;;;;4906092;29;19923;-77
2023/11/01 10:01:28;;;;;;;;;;;15.70;99.90;;;;;;4925365;29;20013;-77
2023/11/01 10:03:56;;;;;;;;;;;16.00;99.90;;;;;;4935996;29;19953;-77
2023/11/01 10:06:23;;;;;;;;;;;16.10;99.90;;;;;;4927695;29;19907;-76
2023/11/01 10:08:49;;;;;;;;;;;16.20;99.90;;;;;;4923340;29;19919;-76
2023/11/01 10:11:16;;;;;;;;;;;15.90;99.90;;;;;;4912024;29;20438;-76
2023/11/01 10:13:42;;;;;;;;;;;15.60;99.90;;;;;;4898181;29;20019;-76
2023/11/01 10:16:08;;;;;;;;;;;15.40;99.90;;;;;;4917572;29;19919;-77
2023/11/01 10:18:35;;;;;;;;;;;15.40;99.90;;;;;;4922036;29;19926;-76
2023/11/01 10:21:01;;;;;;;;;;;15.60;99.90;;;;;;4914407;29;19912;-77
2023/11/01 10:23:27;;;;;;;;;;;15.80;99.90;;;;;;4910259;29;19895;-77
2023/11/01 10:25:52;;;;;;;;;;;15.80;99.90;;;;;;4906203;29;19970;-76
2023/11/01 10:28:18;;;;;;;;;;;15.70;99.90;;;;;;4917040;29;19908;-76
2023/11/01 10:30:46;;;;;;;;;;;15.70;99.90;;;;;;4919831;29;19910;-77
2023/11/01 10:33:13;;;;;;;;;;;15.80;99.90;;;;;;4914987;29;20018;-76
2023/11/01 10:35:38;;;;;;;;;;;15.70;99.90;;;;;;4900180;29;19911;-76
2023/11/01 10:38:04;;;;;;;;;;;15.90;99.90;;;;;;4918134;29;19891;-76
2023/11/01 10:40:29;;;;;;;;;;;16.20;99.90;;;;;;4906689;29;19911;-76
2023/11/01 10:42:59;;;;;;;;;;;16.20;99.90;;;;;;4917339;29;19909;-77
2023/11/01 10:45:24;;;;;;;;;;;16.20;99.90;;;;;;4922561;29;19906;-77
2023/11/01 10:47:53;;;;;;;;;;;16.30;99.90;;;;;;4900408;29;19907;-77
2023/11/01 10:50:19;;;;;;;;;;;16.40;99.90;;;;;;4900098;29;19911;-76
2023/11/01 10:52:45;;;;;;;;;;;16.30;99.90;;;;;;4941686;29;20429;-76
2023/11/01 10:55:11;;;;;;;;;;;16.40;99.90;;;;;;4917079;29;19914;-76
2023/11/01 10:57:37;;;;;;;;;;;16.40;99.90;;;;;;4898189;29;19908;-76
2023/11/01 11:00:06;;;;;;;;;;;16.40;99.90;;;;;;4902619;29;19951;-76
2023/11/01 11:02:37;;;;;;;;;;;16.50;99.90;;;;;;4917611;29;19958;-76
2023/11/01 11:05:04;;;;;;;;;;;16.50;99.90;;;;;;4916688;29;19910;-76
2023/11/01 11:07:32;;;;;;;;;;;16.60;99.90;;;;;;4921863;29;19922;-76
2023/11/01 11:10:16;;;;;;;;;;;16.70;99.90;;;;;;4899697;29;19965;-76
2023/11/01 11:12:41;;;;;;;;;;;16.70;99.90;;;;;;4894711;29;20002;-76
2023/11/01 11:15:07;;;;;;;;;;;16.60;99.90;;;;;;4901367;29;19954;-76
2023/11/01 11:17:38;;;;;;;;;;;16.60;99.90;;;;;;4905889;29;19975;-75
2023/11/01 11:20:09;;;;;;;;;;;16.50;99.90;;;;;;4915777;29;19919;-77
2023/11/01 11:22:53;;;;;;;;;;;16.60;99.90;;;;;;4905828;29;20414;-76
2023/11/01 11:25:37;;;;;;;;;;;16.70;99.90;;;;;;4901316;29;19911;-76
2023/11/01 11:28:09;;;;;;;;;;;16.90;99.90;;;;;;4922108;29;19966;-76
2023/11/01 11:30:44;;;;;;;;;;;16.90;99.90;;;;;;4903393;29;20304;-76
2023/11/01 11:33:09;;;;;;;;;;;16.50;99.90;;;;;;4900011;29;20336;-76
2023/11/01 11:35:35;;;;;;;;;;;16.30;99.90;;;;;;4905213;29;19892;-76
2023/11/01 11:38:24;;;;;;;;;;;16.10;99.90;;;;;;4902883;29;19919;-78
2023/11/01 11:41:08;;;;;;;;;;;15.90;99.90;;;;;;4881908;29;19911;-77
2023/11/01 11:43:52;;;;;;;;;;;15.50;99.90;;;;;;4922898;29;19922;-77
2023/11/01 11:46:27;;;;;;;;;;;16.00;99.90;;;;;;4919372;29;19957;-78
2023/11/01 11:48:53;;;;;;;;;;;15.60;99.90;;;;;;4902942;29;19964;-78
2023/11/01 11:51:18;;;;;;;;;;;15.30;99.90;;;;;;4908774;29;19922;-77
2023/11/01 11:53:45;;;;;;;;;;;15.10;99.90;;;;;;4902629;29;19911;-78
2023/11/01 11:56:14;;;;;;;;;;;15.20;99.90;;;;;;4919352;29;19911;-77
2023/11/01 11:58:40;;;;;;;;;;;15.30;99.90;;;;;;4928108;29;19903;-77
2023/11/01 12:01:05;;;;;;;;;;;15.70;99.90;;;;;;4926048;29;19915;-77
2023/11/01 12:03:30;;;;;;;;;;;15.90;99.90;;;;;;4920096;29;19907;-77
2023/11/01 12:05:57;;;;;;;;;;;16.10;99.90;;;;;;4921880;29;19951;-78
2023/11/01 12:08:35;;;;;;;;;;;16.60;99.90;;;;;;4924130;29;19937;-76
2023/11/01 12:11:01;;;;;;;;;;;16.30;99.90;;;;;;4916678;29;19951;-77
2023/11/01 12:13:39;;;;;;;;;;;16.30;99.90;;;;;;4907095;29;19916;-77
2023/11/01 12:16:06;;;;;;;;;;;16.20;99.90;;;;;;4924204;29;19915;-77
2023/11/01 12:18:32;;;;;;;;;;;16.20;99.90;;;;;;4923193;29;19919;-77
2023/11/01 12:20:57;;;;;;;;;;;16.20;99.90;;;;;;4927709;29;19962;-76
2023/11/01 12:23:23;;;;;;;;;;;16.30;99.90;;;;;;4923432;29;20037;-76
2023/11/01 12:25:48;;;;;;;;;;;16.40;99.90;;;;;;4901384;29;20307;-76
2023/11/01 12:28:23;;;;;;;;;;;17.00;99.90;;;;;;4903574;29;19902;-77
2023/11/01 12:30:48;;;;;;;;;;;17.50;99.90;;;;;;4885079;29;20268;-76
2023/11/01 12:33:17;;;;;;;;;;;17.60;99.90;;;;;;4894897;29;19919;-76
2023/11/01 12:35:44;;;;;;;;;;;18.10;99.90;;;;;;4901742;29;19963;-76
2023/11/01 12:38:16;;;;;;;;;;;18.30;99.90;;;;;;4918142;29;19914;-76
2023/11/01 12:40:41;;;;;;;;;;;17.90;99.90;;;;;;4903696;29;19983;-77
2023/11/01 12:43:08;;;;;;;;;;;17.20;99.90;;;;;;4919342;29;19915;-77
2023/11/01 12:45:33;;;;;;;;;;;17.10;99.90;;;;;;4901872;29;19911;-77
2023/11/01 12:48:00;;;;;;;;;;;17.00;99.90;;;;;;4918399;29;20010;-76
2023/11/01 12:50:27;;;;;;;;;;;16.90;99.90;;;;;;4921847;29;19927;-76
2023/11/01 12:52:53;;;;;;;;;;;16.90;99.90;;;;;;4918859;29;19962;-76
2023/11/01 12:55:19;;;;;;;;;;;16.90;99.90;;;;;;4918953;29;19915;-76
2023/11/01 12:57:49;;;;;;;;;;;16.70;99.90;;;;;;4910882;29;19911;-76
2023/11/01 13:00:15;;;;;;;;;;;16.70;99.90;;;;;;4886872;29;20291;-76
2023/11/01 13:02:41;;;;;;;;;;;16.80;99.90;;;;;;4924050;29;20268;-77
2023/11/01 13:05:07;;;;;;;;;;;16.70;99.90;;;;;;4925940;29;19918;-77
2023/11/01 13:07:33;;;;;;;;;;;16.70;99.90;;;;;;4918108;29;19969;-76
2023/11/01 13:10:01;;;;;;;;;;;16.50;99.90;;;;;;4917868;29;19990;-77
2023/11/01 13:12:27;;;;;;;;;;;16.40;99.90;;;;;;4902772;29;20450;-77
2023/11/01 13:14:54;;;;;;;;;;;16.00;99.90;;;;;;4919043;29;19989;-76
2023/11/01 13:17:19;;;;;;;;;;;15.90;99.90;;;;;;4918647;29;19938;-77
2023/11/01 13:19:45;;;;;;;;;;;15.80;99.90;;;;;;4930559;29;20390;-76
2023/11/01 13:22:10;;;;;;;;;;;16.10;99.90;;;;;;4928637;29;19911;-77
2023/11/01 13:24:36;;;;;;;;;;;16.20;99.90;;;;;;4918553;29;19907;-77
2023/11/01 13:27:08;;;;;;;;;;;16.40;99.90;;;;;;4917169;29;20367;-77
2023/11/01 13:29:38;;;;;;;;;;;16.40;99.90;;;;;;4898896;29;19916;-76
2023/11/01 13:32:04;;;;;;;;;;;16.60;99.90;;;;;;4885092;29;20278;-76
2023/11/01 13:34:30;;;;;;;;;;;16.90;99.90;;;;;;4906336;29;20423;-76
2023/11/01 13:36:55;;;;;;;;;;;16.60;99.90;;;;;;4903597;29;19911;-76
2023/11/01 13:39:21;;;;;;;;;;;16.40;99.90;;;;;;4912498;29;19908;-77
2023/11/01 13:41:50;;;;;;;;;;;16.40;99.90;;;;;;4904890;29;19967;-76
2023/11/01 13:44:16;;;;;;;;;;;16.50;99.90;;;;;;4898305;29;19958;-75
2023/11/01 13:46:41;;;;;;;;;;;16.40;99.90;;;;;;4882170;29;19907;-76
2023/11/01 13:49:07;;;;;;;;;;;16.40;99.90;;;;;;4911166;29;19919;-76
2023/11/01 13:51:33;;;;;;;;;;;16.30;99.90;;;;;;4898920;29;20364;-76
2023/11/01 13:53:59;;;;;;;;;;;15.70;99.90;;;;;;4898757;29;19990;-77
2023/11/01 13:56:24;;;;;;;;;;;15.40;99.90;;;;;;4902641;29;19975;-76
2023/11/01 13:58:50;;;;;;;;;;;15.40;99.90;;;;;;4917737;29;19907;-76
2023/11/01 14:01:17;;;;;;;;;;;15.60;99.90;;;;;;4927993;29;19952;-77
2023/11/01 14:03:49;;;;;;;;;;;15.80;99.90;;;;;;4938462;29;19915;-77
2023/11/01 14:06:15;;;;;;;;;;;16.00;99.90;;;;;;4936837;29;20330;-77
2023/11/01 14:08:41;;;;;;;;;;;16.30;99.90;;;;;;4936460;29;19914;-77
2023/11/01 14:11:07;;;;;;;;;;;16.60;99.90;;;;;;4930685;29;19963;-76